Terminal Aerodrome Forecast
Issued by NWS Green Bay, WI

Home | Current Version | Previous Version | Graphics & Text | Print | Product List | Glossary On
Versions: 1 2 3 4 5 6 7 8 9 10 11 12 13 14 15 16 17 18 19 20 21 22 23 24 25 26 27 28 29 30 31 32 33 34 35 36 37 38
718
FTUS43 KGRB 271127
TAFGRB
TAF
KGRB 271127Z 2712/2812 04012KT P6SM BKN250
     FM271600 05015G26KT P6SM OVC200
     FM280200 05012KT P6SM OVC120
     FM280900 04010KT P6SM SCT060 OVC100 PROB30 2809/2812 -RA
      OVC045=

USA.gov is the U.S. government's official web portal to all federal, state and local government web resources and services.